Nestor — V2FB3 — position and weather

sailwx.info

Track history (hours):
 
Tides and Currents Weather Stations Pressure Air Temp Water Temp Dewpoint Dewpoint Depression Visibility Wind Speed Wind Dir Waves Ship Positions

Nestor

Last reported at 2016-May-06 08:33 UTC. Time now 2016-May-06 09:17 UTC.
Position N 53°18' W 002°54'.

Length 88 m; draft 3.5 m.

Type: Cargo ship. MMSI: 305620000.

Date/timePositionNaut miles runAvg speedWind from/ knotsBaromVisibWave heightAir tempDewpointWater temp
2016-May-06 08:33N 53°18' W 002°54'0 0.0
2016-May-06 07:33N 53°18' W 002°54'0 0.0
2016-May-06 06:33N 53°18' W 002°54'0 0.0
2016-May-06 05:33N 53°18' W 002°54'0 0.0
2016-May-06 04:33N 53°18' W 002°54'0 0.0
2016-May-06 03:33N 53°18' W 002°54'0 0.0
2016-May-06 02:33N 53°18' W 002°54'0 0.0
2016-May-06 01:33N 53°18' W 002°54'2 1.9
2016-May-06 00:33N 53°19' W 002°56'2 1.9
2016-May-05 23:33N 53°21' W 002°58'1 0.8
2016-May-05 22:24N 53°22' W 002°58'0 0.0
2016-May-05 21:33N 53°22' W 002°58'1 0.7
2016-May-05 20:33N 53°22' W 002°59'3 2.6
2016-May-05 19:33N 53°24' W 003°01'0 0.4
2016-May-05 18:33N 53°24' W 003°02'0 0.0
2016-May-05 17:33N 53°24' W 003°02'0 0.0
2016-May-05 16:31N 53°24' W 003°02'0 0.0
2016-May-05 15:28N 53°24' W 003°02'0 0.0
2016-May-05 14:31N 53°24' W 003°02'0 0.0
2016-May-05 13:31N 53°24' W 003°02'0 0.0
2016-May-05 12:31N 53°24' W 003°02'0 0.0
2016-May-05 11:31N 53°24' W 003°02'0 0.0
2016-May-05 10:31N 53°24' W 003°02'0 0.0
2016-May-05 09:31N 53°24' W 003°02'0 0.0
2016-May-05 08:28N 53°24' W 003°02'0 0.0
2016-May-05 07:28N 53°24' W 003°02'0 0.0
2016-May-05 06:31N 53°24' W 003°02'0 0.0
2016-May-05 05:31N 53°24' W 003°02'0 0.0
2016-May-05 04:31N 53°24' W 003°02'0 0.0
2016-May-05 03:31N 53°24' W 003°02'0 0.0
2016-May-05 02:31N 53°24' W 003°02'0 0.0
2016-May-05 01:31N 53°24' W 003°02'0 0.0
2016-May-05 00:31N 53°24' W 003°02'0 0.0
2016-May-04 23:31N 53°24' W 003°02'0 0.0
2016-May-04 22:31N 53°24' W 003°02'0 0.0
2016-May-04 21:31N 53°24' W 003°02'0 0.0
2016-May-04 20:31N 53°24' W 003°02'0 0.0
2016-May-04 19:31N 53°24' W 003°02'0 0.0
2016-May-04 18:25N 53°24' W 003°02'0 0.0
2016-May-04 17:31N 53°24' W 003°02'0 0.0
2016-May-04 16:25N 53°24' W 003°02'0 0.0
2016-May-04 15:31N 53°24' W 003°02'0 0.0
2016-May-04 14:25N 53°24' W 003°02'0 0.0
2016-May-04 13:31N 53°24' W 003°02'0 0.0
2016-May-04 12:31N 53°24' W 003°02'0 0.0
2016-May-04 11:31N 53°24' W 003°02'0 0.0
2016-May-04 10:31N 53°24' W 003°02'0 0.0
2016-May-04 09:31N 53°24' W 003°02'0 0.0
2016-May-04 08:31N 53°24' W 003°02'0 0.0
2016-May-04 07:28N 53°24' W 003°02'0 0.0
2016-May-04 06:28N 53°24' W 003°02'0 0.0
2016-May-04 05:31N 53°24' W 003°02'0 0.0
2016-May-04 04:31N 53°24' W 003°02'0 0.0
2016-May-04 03:25N 53°24' W 003°02'0 0.0
2016-May-04 02:31N 53°24' W 003°02'0 0.0
2016-May-04 01:31N 53°24' W 003°02'0 0.0
2016-May-04 00:31N 53°24' W 003°02'0 0.0
2016-May-03 23:31N 53°24' W 003°02'0 0.0
2016-May-03 22:31N 53°24' W 003°02'0 0.0
2016-May-03 21:33N 53°24' W 003°02'0 0.4
2016-May-03 20:33N 53°24' W 003°01'0 0.0
2016-May-03 19:33N 53°24' W 003°01'3 3.4
2016-May-03 18:33N 53°27' W 003°03'7 6.8
2016-May-03 17:33N 53°31' W 003°12'4 4.3
2016-May-03 16:34N 53°32' W 003°20'2 1.9
2016-May-03 15:33N 53°31' W 003°23'7 6.5
2016-May-03 14:33N 53°31' W 003°34'6 6.1
2016-May-03 13:33N 53°31' W 003°44'6 5.8
2016-May-03 12:33N 53°31' W 003°54'182 6.7
2016-May-02 09:23N 50°44' W 005°51'6 7.1
2016-May-02 08:34N 50°38' W 005°52'8 7.7
2016-May-02 07:32N 50°30' W 005°52'8 8.3
2016-May-02 06:32N 50°22' W 005°52'7 6.8
2016-May-02 05:28N 50°14' W 005°53'6 6.4
2016-May-02 04:33N 50°08' W 005°53'7 6.6
2016-May-02 03:34N 50°02' W 005°53'7 7.1
2016-May-02 02:30N 49°55' W 005°55'  
Track history (hours):
 
Tides and Currents Weather Stations Pressure Air Temp Water Temp Dewpoint Dewpoint Depression Visibility Wind Speed Wind Dir Waves Ship Positions

Nestor

Last reported at 2016-May-06 08:33 UTC. Time now 2016-May-06 09:17 UTC.
Position N 53°18' W 002°54'.

Length 88 m; draft 3.5 m.

Type: Cargo ship. MMSI: 305620000.

Date/timePositionNaut miles runAvg speedWind from/ knotsBaromVisibWave heightAir tempDewpointWater temp
2016-May-06 08:33N 53°18' W 002°54'0 0.0
2016-May-06 07:33N 53°18' W 002°54'0 0.0
2016-May-06 06:33N 53°18' W 002°54'0 0.0
2016-May-06 05:33N 53°18' W 002°54'0 0.0
2016-May-06 04:33N 53°18' W 002°54'0 0.0
2016-May-06 03:33N 53°18' W 002°54'0 0.0
2016-May-06 02:33N 53°18' W 002°54'0 0.0
2016-May-06 01:33N 53°18' W 002°54'2 1.9
2016-May-06 00:33N 53°19' W 002°56'2 1.9
2016-May-05 23:33N 53°21' W 002°58'1 0.8
2016-May-05 22:24N 53°22' W 002°58'0 0.0
2016-May-05 21:33N 53°22' W 002°58'1 0.7
2016-May-05 20:33N 53°22' W 002°59'3 2.6
2016-May-05 19:33N 53°24' W 003°01'0 0.4
2016-May-05 18:33N 53°24' W 003°02'0 0.0
2016-May-05 17:33N 53°24' W 003°02'0 0.0
2016-May-05 16:31N 53°24' W 003°02'0 0.0
2016-May-05 15:28N 53°24' W 003°02'0 0.0
2016-May-05 14:31N 53°24' W 003°02'0 0.0
2016-May-05 13:31N 53°24' W 003°02'0 0.0
2016-May-05 12:31N 53°24' W 003°02'0 0.0
2016-May-05 11:31N 53°24' W 003°02'0 0.0
2016-May-05 10:31N 53°24' W 003°02'0 0.0
2016-May-05 09:31N 53°24' W 003°02'0 0.0
2016-May-05 08:28N 53°24' W 003°02'0 0.0
2016-May-05 07:28N 53°24' W 003°02'0 0.0
2016-May-05 06:31N 53°24' W 003°02'0 0.0
2016-May-05 05:31N 53°24' W 003°02'0 0.0
2016-May-05 04:31N 53°24' W 003°02'0 0.0
2016-May-05 03:31N 53°24' W 003°02'0 0.0
2016-May-05 02:31N 53°24' W 003°02'0 0.0
2016-May-05 01:31N 53°24' W 003°02'0 0.0
2016-May-05 00:31N 53°24' W 003°02'0 0.0
2016-May-04 23:31N 53°24' W 003°02'0 0.0
2016-May-04 22:31N 53°24' W 003°02'0 0.0
2016-May-04 21:31N 53°24' W 003°02'0 0.0
2016-May-04 20:31N 53°24' W 003°02'0 0.0
2016-May-04 19:31N 53°24' W 003°02'0 0.0
2016-May-04 18:25N 53°24' W 003°02'0 0.0
2016-May-04 17:31N 53°24' W 003°02'0 0.0
2016-May-04 16:25N 53°24' W 003°02'0 0.0
2016-May-04 15:31N 53°24' W 003°02'0 0.0
2016-May-04 14:25N 53°24' W 003°02'0 0.0
2016-May-04 13:31N 53°24' W 003°02'0 0.0
2016-May-04 12:31N 53°24' W 003°02'0 0.0
2016-May-04 11:31N 53°24' W 003°02'0 0.0
2016-May-04 10:31N 53°24' W 003°02'0 0.0
2016-May-04 09:31N 53°24' W 003°02'0 0.0
2016-May-04 08:31N 53°24' W 003°02'0 0.0
2016-May-04 07:28N 53°24' W 003°02'0 0.0
2016-May-04 06:28N 53°24' W 003°02'0 0.0
2016-May-04 05:31N 53°24' W 003°02'0 0.0
2016-May-04 04:31N 53°24' W 003°02'0 0.0
2016-May-04 03:25N 53°24' W 003°02'0 0.0
2016-May-04 02:31N 53°24' W 003°02'0 0.0
2016-May-04 01:31N 53°24' W 003°02'0 0.0
2016-May-04 00:31N 53°24' W 003°02'0 0.0
2016-May-03 23:31N 53°24' W 003°02'0 0.0
2016-May-03 22:31N 53°24' W 003°02'0 0.0
2016-May-03 21:33N 53°24' W 003°02'0 0.4
2016-May-03 20:33N 53°24' W 003°01'0 0.0
2016-May-03 19:33N 53°24' W 003°01'3 3.4
2016-May-03 18:33N 53°27' W 003°03'7 6.8
2016-May-03 17:33N 53°31' W 003°12'4 4.3
2016-May-03 16:34N 53°32' W 003°20'2 1.9
2016-May-03 15:33N 53°31' W 003°23'7 6.5
2016-May-03 14:33N 53°31' W 003°34'6 6.1
2016-May-03 13:33N 53°31' W 003°44'6 5.8
2016-May-03 12:33N 53°31' W 003°54'182 6.7
2016-May-02 09:23N 50°44' W 005°51'6 7.1
2016-May-02 08:34N 50°38' W 005°52'8 7.7
2016-May-02 07:32N 50°30' W 005°52'8 8.3
2016-May-02 06:32N 50°22' W 005°52'7 6.8
2016-May-02 05:28N 50°14' W 005°53'6 6.4
2016-May-02 04:33N 50°08' W 005°53'7 6.6
2016-May-02 03:34N 50°02' W 005°53'7 7.1
2016-May-02 02:30N 49°55' W 005°55'  

Dump ship's entire track history